createdAt,value
2019-03-28T00:00:11.177Z,101283.36
2019-03-28T00:02:40.380Z,101284.24
2019-03-28T00:05:09.798Z,101284.81
2019-03-28T00:07:38.984Z,101284.81
2019-03-28T00:10:08.602Z,101280.62
2019-03-28T00:12:37.744Z,101280.62
2019-03-28T00:15:08.286Z,101279.84
2019-03-28T00:17:37.681Z,101280.30
2019-03-28T00:20:07.181Z,101280.83
2019-03-28T00:22:41.081Z,101278.28
2019-03-28T00:25:14.441Z,101279.56
2019-03-28T00:27:43.637Z,101279.17
2019-03-28T00:30:13.530Z,101279.66
2019-03-28T00:32:42.775Z,101273.34
2019-03-28T00:35:11.986Z,101277.63
2019-03-28T00:37:41.203Z,101276.81
2019-03-28T00:40:10.814Z,101273.45
2019-03-28T00:42:40.089Z,101273.45
2019-03-28T00:45:09.743Z,101279.92
2019-03-28T00:47:39.061Z,101273.19
2019-03-28T00:50:08.867Z,101276.59
2019-03-28T00:52:38.127Z,101278.75
2019-03-28T00:55:07.428Z,101278.75
2019-03-28T00:57:36.639Z,101274.52
2019-03-28T01:00:07.381Z,101263.87
2019-03-28T01:02:36.610Z,101271.55
2019-03-28T01:05:07.212Z,101270.72
2019-03-28T01:07:36.472Z,101267.77
2019-03-28T01:10:07.275Z,101267.77
2019-03-28T01:12:36.421Z,101266.48
2019-03-28T01:15:07.970Z,101269.52
2019-03-28T01:17:37.190Z,101269.52
2019-03-28T01:20:07.296Z,101260.30
2019-03-28T01:22:36.548Z,101273.91
2019-03-28T01:25:06.737Z,101270.61
2019-03-28T01:27:35.950Z,101274.48
2019-03-28T01:30:07.397Z,101275.77
2019-03-28T01:32:36.630Z,101272.78
2019-03-28T01:35:06.547Z,101272.80
2019-03-28T01:37:35.785Z,101272.80
2019-03-28T01:40:06.632Z,101271.10
2019-03-28T01:42:35.821Z,101273.33
2019-03-28T01:45:06.542Z,101269.06
2019-03-28T01:47:35.786Z,101266.92
2019-03-28T01:50:07.064Z,101263.16
2019-03-28T01:52:36.318Z,101263.16
2019-03-28T01:55:07.524Z,101262.75
2019-03-28T01:57:36.662Z,101266.57
2019-03-28T02:00:08.347Z,101268.37
2019-03-28T02:02:37.555Z,101268.37
2019-03-28T02:05:08.085Z,101268.48
2019-03-28T02:07:37.247Z,101271.45
2019-03-28T02:10:06.958Z,101271.45
2019-03-28T02:12:36.170Z,101261.71
2019-03-28T02:15:08.282Z,101264.73
2019-03-28T02:17:37.480Z,101265.62
2019-03-28T02:20:11.104Z,101265.62
2019-03-28T02:22:40.289Z,101270.76
2019-03-28T02:25:09.682Z,101270.76
2019-03-28T02:27:38.881Z,101261.37
2019-03-28T02:30:09.516Z,101258.45
2019-03-28T02:32:38.659Z,101260.16
2019-03-28T02:35:08.573Z,101263.53
2019-03-28T02:37:37.825Z,101273.05
2019-03-28T02:40:07.783Z,101279.95
2019-03-28T02:42:36.973Z,101279.95
2019-03-28T02:45:07.227Z,101285.55
2019-03-28T02:47:36.436Z,101285.55
2019-03-28T02:50:06.986Z,101287.25
2019-03-28T02:52:36.178Z,101287.25
2019-03-28T02:55:07.005Z,101288.47
2019-03-28T02:57:41.816Z,101288.47
2019-03-28T03:00:08.400Z,101282.47
2019-03-28T03:02:37.584Z,101282.47
2019-03-28T03:05:08.099Z,101277.34
2019-03-28T03:07:37.193Z,101273.95
2019-03-28T03:10:08.093Z,101285.09
2019-03-28T03:12:37.222Z,101281.70
2019-03-28T03:15:08.167Z,101281.70
2019-03-28T03:17:37.364Z,101280.89
2019-03-28T03:20:07.574Z,101292.36
2019-03-28T03:22:36.825Z,101292.36
2019-03-28T03:25:07.454Z,101290.67
2019-03-28T03:27:36.642Z,101301.77
2019-03-28T03:30:08.594Z,101300.11
2019-03-28T03:32:38.183Z,101300.11
2019-03-28T03:35:07.571Z,101295.43
2019-03-28T03:37:36.810Z,101295.43
2019-03-28T03:40:08.592Z,101295.85
2019-03-28T03:42:37.812Z,101295.85
2019-03-28T03:45:09.291Z,101310.86
2019-03-28T03:47:38.933Z,101310.02
2019-03-28T03:50:08.895Z,101315.13
2019-03-28T03:52:38.114Z,101319.43
2019-03-28T03:55:07.921Z,101319.00
2019-03-28T03:57:37.055Z,101317.00
2019-03-28T04:00:07.594Z,101317.00
2019-03-28T04:02:36.950Z,101318.72
2019-03-28T04:05:07.206Z,101328.11
2019-03-28T04:07:36.451Z,101326.88
2019-03-28T04:10:06.851Z,101332.92
2019-03-28T04:12:36.174Z,101332.92
2019-03-28T04:15:06.685Z,101326.13
2019-03-28T04:17:35.895Z,101332.54
2019-03-28T04:20:06.906Z,101335.08
2019-03-28T04:22:36.988Z,101333.38
2019-03-28T04:25:07.227Z,101333.40
2019-03-28T04:27:36.388Z,101341.08
2019-03-28T04:30:07.799Z,101335.58
2019-03-28T04:32:37.016Z,101337.69
2019-03-28T04:35:06.836Z,101343.24
2019-03-28T04:37:36.064Z,101344.09
2019-03-28T04:40:09.007Z,101345.80
2019-03-28T04:42:38.291Z,101349.17
2019-03-28T04:45:08.533Z,101349.16
2019-03-28T04:47:37.652Z,101350.41
2019-03-28T04:50:08.355Z,101356.77
2019-03-28T04:52:37.587Z,101356.77
2019-03-28T04:55:07.230Z,101359.31
2019-03-28T04:57:36.436Z,101358.87
2019-03-28T05:00:07.685Z,101358.84
2019-03-28T05:02:36.942Z,101354.58
2019-03-28T05:05:07.466Z,101360.92
2019-03-28T05:07:36.690Z,101366.38
2019-03-28T05:10:08.284Z,101365.03
2019-03-28T05:12:37.441Z,101369.65
2019-03-28T05:15:12.130Z,101374.23
2019-03-28T05:17:41.356Z,101374.14
2019-03-28T05:20:13.280Z,101372.37
2019-03-28T05:22:42.346Z,101383.64
2019-03-28T05:25:11.942Z,101383.64
2019-03-28T05:27:41.136Z,101373.69
2019-03-28T05:30:11.173Z,101381.69
2019-03-28T05:32:40.305Z,101384.59
2019-03-28T05:35:09.637Z,101383.90
2019-03-28T05:37:38.729Z,101378.19
2019-03-28T05:40:08.433Z,101378.19
2019-03-28T05:42:37.630Z,101378.79
2019-03-28T05:45:10.074Z,101379.44
2019-03-28T05:47:39.224Z,101375.80
2019-03-28T05:50:09.038Z,101377.41
2019-03-28T05:52:38.209Z,101377.41
2019-03-28T05:55:08.011Z,101369.42
2019-03-28T05:57:37.141Z,101364.92
2019-03-28T06:00:06.979Z,101372.63
2019-03-28T06:02:36.201Z,101372.27
2019-03-28T06:05:07.077Z,101373.53
2019-03-28T06:07:36.459Z,101379.62
2019-03-28T06:10:07.955Z,101376.00
2019-03-28T06:12:37.103Z,101379.88
2019-03-28T06:15:08.094Z,101372.52
2019-03-28T06:17:37.299Z,101363.65
2019-03-28T06:20:08.012Z,101378.59
2019-03-28T06:22:37.354Z,101375.81
2019-03-28T06:25:06.578Z,101384.96
2019-03-28T06:27:35.710Z,101377.89
2019-03-28T06:30:07.545Z,101381.75
2019-03-28T06:32:42.790Z,101390.58
2019-03-28T06:35:07.689Z,101389.27
2019-03-28T06:37:36.863Z,101389.27
2019-03-28T06:40:07.435Z,101391.59
2019-03-28T06:42:36.657Z,101389.92
2019-03-28T06:45:07.589Z,101394.48
2019-03-28T06:47:36.824Z,101394.77
2019-03-28T06:50:07.035Z,101389.19
2019-03-28T06:52:36.267Z,101391.73
2019-03-28T06:55:06.100Z,101386.63
2019-03-28T06:57:35.306Z,101379.69
2019-03-28T07:00:07.216Z,101381.03
2019-03-28T07:02:36.508Z,101385.56
2019-03-28T07:05:06.205Z,101382.58
2019-03-28T07:07:35.452Z,101380.36
2019-03-28T07:10:06.777Z,101385.92
2019-03-28T07:12:35.928Z,101383.78
2019-03-28T07:15:08.086Z,101384.55
2019-03-28T07:17:37.244Z,101387.66
2019-03-28T07:20:08.985Z,101390.88
2019-03-28T07:22:37.989Z,101383.88
2019-03-28T07:25:07.713Z,101382.68
2019-03-28T07:27:36.861Z,101381.73
2019-03-28T07:30:09.182Z,101386.41
2019-03-28T07:32:38.424Z,101389.72
2019-03-28T07:35:07.938Z,101390.73
2019-03-28T07:37:37.215Z,101392.71
2019-03-28T07:40:08.357Z,101393.37
2019-03-28T07:42:37.574Z,101396.61
2019-03-28T07:45:08.835Z,101401.23
2019-03-28T07:47:38.053Z,101396.43
2019-03-28T07:50:09.069Z,101397.26
2019-03-28T07:52:38.310Z,101403.44
2019-03-28T07:55:08.504Z,101394.70
2019-03-28T07:57:37.663Z,101399.47
2019-03-28T08:00:12.019Z,101404.48
2019-03-28T08:02:41.319Z,101408.05
2019-03-28T08:05:11.534Z,101410.41
2019-03-28T08:07:45.483Z,101410.59
2019-03-28T08:10:12.778Z,101407.45
2019-03-28T08:12:42.013Z,101415.97
2019-03-28T08:15:12.278Z,101412.78
2019-03-28T08:17:41.485Z,101407.25
2019-03-28T08:20:12.001Z,101408.20
2019-03-28T08:22:41.195Z,101408.31
2019-03-28T08:25:13.719Z,101412.25
2019-03-28T08:27:43.086Z,101408.03
2019-03-28T08:30:18.864Z,101406.03
2019-03-28T08:32:43.885Z,101407.33
2019-03-28T08:35:13.608Z,101400.66
2019-03-28T08:37:43.562Z,101397.11
2019-03-28T08:40:15.687Z,101398.73
2019-03-28T08:42:44.946Z,101399.97
2019-03-28T08:45:14.430Z,101399.44
2019-03-28T08:47:43.713Z,101398.39
2019-03-28T08:50:12.933Z,101400.58
2019-03-28T08:52:42.100Z,101390.34
2019-03-28T08:55:11.629Z,101403.30
2019-03-28T08:57:40.767Z,101397.31
2019-03-28T09:00:11.688Z,101398.09
2019-03-28T09:02:40.891Z,101399.66
2019-03-28T09:05:10.102Z,101405.91
2019-03-28T09:07:39.412Z,101392.64
2019-03-28T09:10:08.947Z,101391.09
2019-03-28T09:12:38.339Z,101393.70
2019-03-28T09:15:09.101Z,101389.21
2019-03-28T09:17:38.338Z,101393.94
2019-03-28T09:20:08.044Z,101386.63
2019-03-28T09:22:38.974Z,101398.14
2019-03-28T09:25:08.670Z,101398.38
2019-03-28T09:27:37.932Z,101388.08
2019-03-28T09:30:09.708Z,101390.69
2019-03-28T09:32:38.988Z,101392.87
2019-03-28T09:35:10.105Z,101388.08
2019-03-28T09:37:39.352Z,101381.71
2019-03-28T09:40:08.864Z,101378.30
2019-03-28T09:42:38.074Z,101370.92
2019-03-28T09:45:07.908Z,101371.58
2019-03-28T09:47:37.131Z,101367.66
2019-03-28T09:50:07.750Z,101362.95
2019-03-28T09:52:36.981Z,101361.50
2019-03-28T09:55:07.009Z,101366.52
2019-03-28T09:57:36.091Z,101366.78
2019-03-28T10:00:08.240Z,101361.28
2019-03-28T10:02:37.523Z,101351.79
2019-03-28T10:05:08.097Z,101359.16
2019-03-28T10:07:38.655Z,101356.53
2019-03-28T10:10:09.466Z,101355.70
2019-03-28T10:12:38.653Z,101358.02
2019-03-28T10:15:08.671Z,101352.92
2019-03-28T10:17:37.873Z,101349.14
2019-03-28T10:20:09.009Z,101342.46
2019-03-28T10:22:38.821Z,101346.87
2019-03-28T10:25:08.637Z,101346.63
2019-03-28T10:27:38.081Z,101341.91
2019-03-28T10:30:09.307Z,101342.10
2019-03-28T10:32:38.475Z,101343.14
2019-03-28T10:35:08.087Z,101339.33
2019-03-28T10:37:37.254Z,101330.92
2019-03-28T10:40:08.092Z,101336.30
2019-03-28T10:42:37.239Z,101337.31
2019-03-28T10:45:07.607Z,101330.69
2019-03-28T10:47:36.818Z,101325.33
2019-03-28T10:50:07.323Z,101325.88
2019-03-28T10:52:36.622Z,101324.89
2019-03-28T10:55:06.403Z,101320.58
2019-03-28T10:57:35.623Z,101318.17
2019-03-28T11:00:07.746Z,101313.94
2019-03-28T11:02:36.944Z,101309.28
2019-03-28T11:05:06.638Z,101306.20
2019-03-28T11:07:35.959Z,101302.30
2019-03-28T11:10:07.106Z,101293.70
2019-03-28T11:12:36.294Z,101288.72
2019-03-28T11:15:06.957Z,101280.17
2019-03-28T11:17:36.101Z,101286.27
2019-03-28T11:20:06.704Z,101274.94
2019-03-28T11:22:35.940Z,101276.05
2019-03-28T11:25:06.775Z,101267.58
2019-03-28T11:27:35.958Z,101272.66
2019-03-28T11:30:07.926Z,101271.56
2019-03-28T11:32:37.274Z,101277.43
2019-03-28T11:35:08.074Z,101259.61
2019-03-28T11:37:37.800Z,101263.81
2019-03-28T11:40:09.327Z,101246.68
2019-03-28T11:42:41.308Z,101262.45
2019-03-28T11:45:11.256Z,101262.11
2019-03-28T11:47:40.468Z,101257.09
2019-03-28T11:50:10.705Z,101255.38
2019-03-28T11:52:42.569Z,101255.36
2019-03-28T11:55:11.252Z,101254.14
2019-03-28T11:57:40.463Z,101248.83
2019-03-28T12:00:16.362Z,101242.75
2019-03-28T12:02:45.486Z,101244.30
2019-03-28T12:05:15.195Z,101236.48
2019-03-28T12:07:44.597Z,101237.87
2019-03-28T12:10:14.190Z,101229.21
2019-03-28T12:12:43.361Z,101227.53
2019-03-28T12:15:14.081Z,101226.56
2019-03-28T12:17:43.222Z,101222.88
2019-03-28T12:20:12.608Z,101217.59
2019-03-28T12:22:41.779Z,101203.06
2019-03-28T12:25:11.283Z,101199.09
2019-03-28T12:27:40.606Z,101191.76
2019-03-28T12:30:12.058Z,101189.13
2019-03-28T12:32:41.260Z,101186.78
2019-03-28T12:35:11.368Z,101185.00
2019-03-28T12:37:40.614Z,101173.48
2019-03-28T12:40:10.536Z,101181.00
2019-03-28T12:42:39.732Z,101183.24
2019-03-28T12:45:11.094Z,101177.34
2019-03-28T12:47:42.682Z,101173.67
2019-03-28T12:50:12.719Z,101173.11
2019-03-28T12:52:42.297Z,101171.95
2019-03-28T12:55:11.903Z,101165.23
2019-03-28T12:57:41.110Z,101165.51
2019-03-28T13:00:12.235Z,101155.28
2019-03-28T13:02:41.386Z,101155.98
2019-03-28T13:05:11.425Z,101149.93
2019-03-28T13:07:40.941Z,101146.64
2019-03-28T13:10:11.917Z,101138.08
2019-03-28T13:12:41.126Z,101137.42
2019-03-28T13:15:10.959Z,101135.44
2019-03-28T13:17:40.090Z,101138.22
2019-03-28T13:20:10.823Z,101126.56
2019-03-28T13:22:40.140Z,101132.33
2019-03-28T13:25:09.760Z,101128.03
2019-03-28T13:27:38.964Z,101125.99
2019-03-28T13:30:13.470Z,101128.52
2019-03-28T13:32:42.819Z,101128.06
2019-03-28T13:35:12.126Z,101128.86
2019-03-28T13:37:41.515Z,101128.13
2019-03-28T13:40:11.233Z,101116.25
2019-03-28T13:42:40.468Z,101115.68
2019-03-28T13:45:11.860Z,101109.10
2019-03-28T13:47:41.068Z,101112.27
2019-03-28T13:50:11.545Z,101109.45
2019-03-28T13:52:41.967Z,101108.89
2019-03-28T13:55:11.272Z,101100.93
2019-03-28T13:57:43.276Z,101108.91
2019-03-28T14:00:13.735Z,101102.32
2019-03-28T14:02:55.583Z,101100.03
2019-03-28T14:05:13.723Z,101113.78
2019-03-28T14:07:42.969Z,101103.66
2019-03-28T14:10:12.180Z,101114.53
2019-03-28T14:12:41.405Z,101101.69
2019-03-28T14:15:10.918Z,101102.50
2019-03-28T14:17:40.071Z,101093.23
2019-03-28T14:20:10.250Z,101085.46
2019-03-28T14:22:39.433Z,101082.86
2019-03-28T14:25:08.948Z,101083.67
2019-03-28T14:27:38.078Z,101082.02
2019-03-28T14:30:11.638Z,101076.57
2019-03-28T14:32:52.512Z,101081.20
2019-03-28T14:35:12.218Z,101077.61
2019-03-28T14:37:41.513Z,101078.90
2019-03-28T14:40:12.518Z,101075.38
2019-03-28T14:42:41.742Z,101067.44
2019-03-28T14:45:12.193Z,101073.92
2019-03-28T14:47:41.576Z,101073.84
2019-03-28T14:50:11.898Z,101073.20
2019-03-28T14:52:41.302Z,101074.79
2019-03-28T14:55:11.229Z,101070.37
2019-03-28T14:57:41.323Z,101063.19
2019-03-28T15:00:19.183Z,101078.11
2019-03-28T15:02:50.488Z,101072.66
2019-03-28T15:05:19.698Z,101077.05
2019-03-28T15:07:48.812Z,101075.01
2019-03-28T15:10:18.026Z,101077.38
2019-03-28T15:12:47.299Z,101075.39
2019-03-28T15:15:16.576Z,101061.96
2019-03-28T15:17:45.866Z,101062.27
2019-03-28T15:20:15.064Z,101056.70
2019-03-28T15:22:44.346Z,101063.86
2019-03-28T15:25:13.721Z,101060.97
2019-03-28T15:27:42.994Z,101060.31
2019-03-28T15:30:12.267Z,101059.09
2019-03-28T15:32:41.489Z,101065.08
2019-03-28T15:35:10.687Z,101059.81
2019-03-28T15:37:39.945Z,101061.66
2019-03-28T15:40:10.249Z,101068.66
2019-03-28T15:42:39.669Z,101070.05
2019-03-28T15:45:09.132Z,101067.44
2019-03-28T15:47:38.469Z,101068.66
2019-03-28T15:50:08.121Z,101066.00
2019-03-28T15:52:37.515Z,101066.21
2019-03-28T15:55:07.845Z,101064.47
2019-03-28T15:57:37.154Z,101068.30
2019-03-28T16:00:08.098Z,101068.25
2019-03-28T16:02:37.291Z,101073.68
2019-03-28T16:05:07.304Z,101072.09
2019-03-28T16:07:36.620Z,101080.44
2019-03-28T16:10:09.029Z,101077.36
2019-03-28T16:12:38.226Z,101082.73
2019-03-28T16:15:10.373Z,101076.11
2019-03-28T16:17:39.598Z,101081.30
2019-03-28T16:20:10.239Z,101071.77
2019-03-28T16:22:39.420Z,101072.53
2019-03-28T16:25:08.883Z,101071.56
2019-03-28T16:27:38.091Z,101074.91
2019-03-28T16:30:12.558Z,101079.75
2019-03-28T16:32:41.778Z,101082.47
2019-03-28T16:35:12.738Z,101084.79
2019-03-28T16:37:41.984Z,101082.13
2019-03-28T16:40:11.561Z,101081.20
2019-03-28T16:42:41.725Z,101090.94
2019-03-28T16:45:11.182Z,101091.55
2019-03-28T16:47:40.387Z,101094.49
2019-03-28T16:50:10.021Z,101094.67
2019-03-28T16:52:39.265Z,101098.63
2019-03-28T16:55:08.673Z,101105.39
2019-03-28T16:57:37.891Z,101102.73
2019-03-28T17:00:15.737Z,101101.11
2019-03-28T17:02:45.267Z,101106.91
2019-03-28T17:05:15.563Z,101106.81
2019-03-28T17:07:45.607Z,101111.84
2019-03-28T17:10:43.324Z,101111.30
2019-03-28T17:13:12.589Z,101112.24
2019-03-28T17:15:41.824Z,101110.27
2019-03-28T17:18:11.056Z,101111.42
2019-03-28T17:20:40.814Z,101113.93
2019-03-28T17:23:10.530Z,101111.00
2019-03-28T17:25:39.722Z,101120.63
2019-03-28T17:28:09.041Z,101118.36
2019-03-28T17:30:38.418Z,101121.27
2019-03-28T17:33:07.552Z,101119.44
2019-03-28T17:35:36.827Z,101122.81
2019-03-28T17:38:06.084Z,101122.75
2019-03-28T17:40:36.770Z,101125.07
2019-03-28T17:43:06.317Z,101131.20
2019-03-28T17:45:35.562Z,101132.92
2019-03-28T17:48:05.351Z,101137.22
2019-03-28T17:50:35.436Z,101136.48
2019-03-28T17:53:04.707Z,101138.89
2019-03-28T17:55:33.935Z,101139.05
2019-03-28T17:58:03.187Z,101141.50
2019-03-28T18:00:32.422Z,101142.20
2019-03-28T18:03:09.018Z,101146.50
2019-03-28T18:05:32.659Z,101146.10
2019-03-28T18:08:01.888Z,101148.85
2019-03-28T18:10:31.170Z,101148.62
2019-03-28T18:13:00.463Z,101158.33
2019-03-28T18:15:31.334Z,101164.23
2019-03-28T18:18:00.562Z,101160.09
2019-03-28T18:20:29.819Z,101169.09
2019-03-28T18:22:59.050Z,101166.43
2019-03-28T18:25:30.312Z,101170.98
2019-03-28T18:27:59.235Z,101174.28
2019-03-28T18:30:28.450Z,101173.67
2019-03-28T18:32:57.672Z,101175.27
2019-03-28T18:35:27.067Z,101175.41
2019-03-28T18:37:56.288Z,101181.50
2019-03-28T18:40:25.500Z,101182.55
2019-03-28T18:42:54.879Z,101181.44
2019-03-28T18:45:24.176Z,101188.86
2019-03-28T18:47:53.362Z,101194.27
2019-03-28T18:50:22.632Z,101193.48
2019-03-28T18:52:51.766Z,101190.41
2019-03-28T18:55:20.991Z,101190.08
2019-03-28T18:57:50.420Z,101191.98
2019-03-28T19:00:20.041Z,101188.78
2019-03-28T19:02:49.192Z,101191.19
2019-03-28T19:05:19.984Z,101194.95
2019-03-28T19:07:49.361Z,101194.33
2019-03-28T19:10:18.890Z,101193.45
2019-03-28T19:12:48.155Z,101199.05
2019-03-28T19:15:17.473Z,101201.84
2019-03-28T19:17:46.694Z,101203.34
2019-03-28T19:20:17.669Z,101207.36
2019-03-28T19:22:50.100Z,101204.58
2019-03-28T19:25:18.212Z,101211.95
2019-03-28T19:27:47.531Z,101211.95
2019-03-28T19:30:19.514Z,101213.02
2019-03-28T19:32:48.942Z,101214.80
2019-03-28T19:35:18.362Z,101216.23
2019-03-28T19:37:47.988Z,101217.79
2019-03-28T19:40:17.526Z,101218.84
2019-03-28T19:42:47.302Z,101219.05
2019-03-28T19:45:19.424Z,101222.93
2019-03-28T19:47:48.563Z,101227.91
2019-03-28T19:50:29.106Z,101230.69
2019-03-28T19:52:57.313Z,101231.71
2019-03-28T19:55:26.526Z,101237.94
2019-03-28T19:57:55.792Z,101240.84
2019-03-28T20:00:25.037Z,101233.97
2019-03-28T20:02:54.427Z,101232.00
2019-03-28T20:05:23.708Z,101236.59
2019-03-28T20:07:52.915Z,101233.73
2019-03-28T20:10:22.156Z,101238.19
2019-03-28T20:12:51.340Z,101238.75
2019-03-28T20:15:20.667Z,101241.89
2019-03-28T20:17:49.916Z,101245.06
2019-03-28T20:20:19.154Z,101252.11
2019-03-28T20:22:48.383Z,101254.30
2019-03-28T20:25:17.674Z,101249.64
2019-03-28T20:27:46.959Z,101254.13
2019-03-28T20:30:18.175Z,101254.89
2019-03-28T20:32:47.613Z,101257.25
2019-03-28T20:35:17.773Z,101254.35
2019-03-28T20:37:47.250Z,101258.83
2019-03-28T20:40:17.256Z,101256.82
2019-03-28T20:42:46.510Z,101260.05
2019-03-28T20:45:16.721Z,101264.47
2019-03-28T20:47:45.966Z,101265.04
2019-03-28T20:50:15.931Z,101266.73
2019-03-28T20:52:45.922Z,101267.05
2019-03-28T20:55:15.938Z,101268.03
2019-03-28T20:57:45.194Z,101274.98
2019-03-28T21:00:16.577Z,101272.02
2019-03-28T21:02:45.962Z,101271.38
2019-03-28T21:05:22.812Z,101274.94
2019-03-28T21:07:52.324Z,101279.30
2019-03-28T21:10:26.212Z,101272.52
2019-03-28T21:12:55.578Z,101273.81
2019-03-28T21:15:24.812Z,101276.34
2019-03-28T21:17:54.525Z,101270.25
2019-03-28T21:20:24.843Z,101276.55
2019-03-28T21:22:54.140Z,101270.44
2019-03-28T21:25:23.435Z,101278.97
2019-03-28T21:27:52.691Z,101273.69
2019-03-28T21:30:22.117Z,101274.98
2019-03-28T21:32:55.714Z,101274.92
2019-03-28T21:35:22.876Z,101279.98
2019-03-28T21:37:52.143Z,101279.50
2019-03-28T21:40:21.378Z,101274.33
2019-03-28T21:42:50.679Z,101277.34
2019-03-28T21:45:19.904Z,101275.22
2019-03-28T21:47:49.135Z,101282.92
2019-03-28T21:50:18.392Z,101276.63
2019-03-28T21:52:47.607Z,101281.16
2019-03-28T21:55:17.118Z,101281.69
2019-03-28T21:57:46.376Z,101280.50
2019-03-28T22:00:17.097Z,101269.55
2019-03-28T22:02:46.303Z,101283.83
2019-03-28T22:05:16.928Z,101278.25
2019-03-28T22:07:46.149Z,101279.59
2019-03-28T22:10:16.985Z,101278.82
2019-03-28T22:12:46.354Z,101276.66
2019-03-28T22:15:15.692Z,101280.17
2019-03-28T22:17:45.045Z,101275.11
2019-03-28T22:20:14.533Z,101284.99
2019-03-28T22:22:43.802Z,101275.54
2019-03-28T22:25:13.078Z,101283.35
2019-03-28T22:27:42.398Z,101281.33
2019-03-28T22:30:13.048Z,101280.87
2019-03-28T22:32:42.442Z,101285.21
2019-03-28T22:35:11.688Z,101288.50
2019-03-28T22:37:40.838Z,101288.50
2019-03-28T22:40:12.110Z,101292.06
2019-03-28T22:42:41.490Z,101282.66
2019-03-28T22:45:13.617Z,101285.34
2019-03-28T22:47:42.955Z,101287.20
2019-03-28T22:50:12.628Z,101280.80
2019-03-28T22:52:41.931Z,101286.02
2019-03-28T22:55:11.764Z,101281.90
2019-03-28T22:57:41.874Z,101290.95
2019-03-28T23:00:13.505Z,101288.47
2019-03-28T23:02:42.983Z,101285.47
2019-03-28T23:05:12.940Z,101289.09
2019-03-28T23:07:42.146Z,101291.47
2019-03-28T23:10:11.900Z,101292.91
2019-03-28T23:12:41.155Z,101299.52
2019-03-28T23:15:11.279Z,101292.84
2019-03-28T23:17:40.573Z,101303.59
2019-03-28T23:20:11.780Z,101307.61
2019-03-28T23:22:41.046Z,101298.73
2019-03-28T23:25:10.951Z,101300.11
2019-03-28T23:27:40.407Z,101303.20
2019-03-28T23:30:10.327Z,101300.36
2019-03-28T23:32:39.606Z,101300.36
2019-03-28T23:35:09.373Z,101292.37
2019-03-28T23:37:38.591Z,101306.20
2019-03-28T23:40:08.822Z,101305.59
2019-03-28T23:42:38.243Z,101305.59
2019-03-28T23:45:11.844Z,101309.42
2019-03-28T23:47:42.745Z,101303.11
2019-03-28T23:50:12.524Z,101305.28
2019-03-28T23:52:42.161Z,101311.41
2019-03-28T23:55:12.247Z,101310.17
2019-03-28T23:57:41.477Z,101310.17
